createdAt,value
2023-02-19T00:01:53.406Z,101202.44
2023-02-19T00:04:23.657Z,101195.97
2023-02-19T00:06:51.656Z,101201.28
2023-02-19T00:09:21.501Z,101204.13
2023-02-19T00:11:51.132Z,101198.72
2023-02-19T00:14:21.540Z,101199.94
2023-02-19T00:16:51.445Z,101203.38
2023-02-19T00:19:21.529Z,101199.25
2023-02-19T00:21:51.976Z,101192.41
2023-02-19T00:24:20.658Z,101195.94
2023-02-19T00:26:50.085Z,101204.41
2023-02-19T00:29:20.015Z,101196.41
2023-02-19T00:31:48.909Z,101185.53
2023-02-19T00:34:17.271Z,101178.69
2023-02-19T00:36:45.483Z,101185.19
2023-02-19T00:39:15.627Z,101168.44
2023-02-19T00:41:44.112Z,101175.09
2023-02-19T00:44:13.898Z,101172.56
2023-02-19T00:46:43.822Z,101172.25
2023-02-19T00:49:16.472Z,101177.38
2023-02-19T00:51:44.348Z,101166.13
2023-02-19T00:54:12.907Z,101173.78
2023-02-19T00:56:41.627Z,101172.25
2023-02-19T00:59:09.830Z,101170.25
2023-02-19T01:01:39.551Z,101166.72
2023-02-19T01:04:07.825Z,101162.34
2023-02-19T01:06:36.006Z,101157.78
2023-02-19T01:09:04.970Z,101153.13
2023-02-19T01:11:33.130Z,101154.06
2023-02-19T01:14:02.355Z,101156.41
2023-02-19T01:16:30.987Z,101146.25
2023-02-19T01:19:01.169Z,101142.03
2023-02-19T01:21:30.440Z,101139.69
2023-02-19T01:23:59.199Z,101135.41
2023-02-19T01:26:29.778Z,101122.34
2023-02-19T01:28:57.838Z,101111.94
2023-02-19T01:31:26.256Z,101108.56
2023-02-19T01:33:56.230Z,101098.94
2023-02-19T01:36:25.805Z,101112.66
2023-02-19T01:38:54.041Z,101115.06
2023-02-19T01:41:23.860Z,101117.13
2023-02-19T01:44:01.206Z,101122.09
2023-02-19T01:46:30.722Z,101110.75
2023-02-19T01:49:03.141Z,101112.88
2023-02-19T01:51:34.642Z,101105.34
2023-02-19T01:54:06.022Z,101102.03
2023-02-19T01:56:36.273Z,101093.09
2023-02-19T01:59:04.533Z,101094.81
2023-02-19T02:01:32.954Z,101089.19
2023-02-19T02:04:01.634Z,101093.88
2023-02-19T02:06:35.243Z,101088.31
2023-02-19T02:09:20.776Z,101085.56
2023-02-19T02:11:51.251Z,101069.22
2023-02-19T02:14:21.093Z,101073.97
2023-02-19T02:16:59.487Z,101085.47
2023-02-19T02:19:44.825Z,101083.75
2023-02-19T02:22:19.707Z,101078.63
2023-02-19T02:25:06.366Z,101088.13
2023-02-19T02:27:44.830Z,101089.75
2023-02-19T02:30:30.098Z,101087.19
2023-02-19T02:33:07.811Z,101092.69
2023-02-19T02:35:45.224Z,101085.00
2023-02-19T02:38:16.166Z,101078.16
2023-02-19T02:40:46.004Z,101073.31
2023-02-19T02:43:15.040Z,101073.00
2023-02-19T02:45:44.607Z,101071.22
2023-02-19T02:48:38.433Z,101073.69
2023-02-19T02:51:15.265Z,101073.88
2023-02-19T02:54:13.063Z,101073.88
2023-02-19T02:56:42.484Z,101068.94
2023-02-19T02:59:13.569Z,101075.22
2023-02-19T03:02:04.948Z,101085.81
2023-02-19T03:04:37.126Z,101094.47
2023-02-19T03:07:09.087Z,101089.81
2023-02-19T03:09:43.150Z,101088.22
2023-02-19T03:12:33.262Z,101089.25
2023-02-19T03:15:25.671Z,101087.47
2023-02-19T03:18:17.901Z,101095.75
2023-02-19T03:20:49.720Z,101095.59
2023-02-19T03:23:20.356Z,101099.50
2023-02-19T03:26:05.953Z,101115.81
2023-02-19T03:29:03.951Z,101112.09
2023-02-19T03:31:34.942Z,101112.34
2023-02-19T03:34:10.819Z,101119.06
2023-02-19T03:36:45.307Z,101101.88
2023-02-19T03:39:18.482Z,101119.16
2023-02-19T03:41:54.880Z,101116.41
2023-02-19T03:44:29.539Z,101120.25
2023-02-19T03:47:03.727Z,101117.19
2023-02-19T03:49:43.580Z,101114.22
2023-02-19T03:52:17.602Z,101114.06
2023-02-19T03:54:52.800Z,101130.75
2023-02-19T03:57:25.616Z,101124.81
2023-02-19T04:00:00.486Z,101132.03
2023-02-19T04:02:33.908Z,101127.66
2023-02-19T04:05:13.213Z,101130.75
2023-02-19T04:07:46.864Z,101139.94
2023-02-19T04:10:18.840Z,101148.19
2023-02-19T04:12:55.145Z,101142.84
2023-02-19T04:15:27.618Z,101148.56
2023-02-19T04:18:01.493Z,101147.22
2023-02-19T04:20:35.446Z,101149.03
2023-02-19T04:23:04.331Z,101150.44
2023-02-19T04:25:34.315Z,101149.53
2023-02-19T04:28:03.333Z,101158.59
2023-02-19T04:30:31.425Z,101158.44
2023-02-19T04:32:59.417Z,101162.81
2023-02-19T04:35:27.421Z,101170.72
2023-02-19T04:37:56.692Z,101164.22
2023-02-19T04:40:51.425Z,101179.09
2023-02-19T04:43:19.853Z,101173.09
2023-02-19T04:45:47.799Z,101175.88
2023-02-19T04:48:15.675Z,101171.59
2023-02-19T04:50:43.557Z,101168.09
2023-02-19T04:53:12.766Z,101175.22
2023-02-19T04:55:41.073Z,101184.91
2023-02-19T04:58:08.919Z,101178.47
2023-02-19T05:00:36.826Z,101183.47
2023-02-19T05:03:04.774Z,101186.94
2023-02-19T05:05:32.765Z,101196.91
2023-02-19T05:08:00.600Z,101188.38
2023-02-19T05:10:29.819Z,101191.53
2023-02-19T05:12:58.123Z,101191.59
2023-02-19T05:15:26.038Z,101193.16
2023-02-19T05:17:54.262Z,101188.00
2023-02-19T05:20:23.003Z,101180.25
2023-02-19T05:22:50.928Z,101183.19
2023-02-19T05:25:18.940Z,101177.88
2023-02-19T05:27:48.204Z,101177.72
2023-02-19T05:30:16.148Z,101183.56
2023-02-19T05:32:44.106Z,101186.03
2023-02-19T05:35:11.948Z,101189.50
2023-02-19T05:37:39.771Z,101184.63
2023-02-19T05:40:07.881Z,101195.91
2023-02-19T05:42:35.747Z,101195.75
2023-02-19T05:45:05.476Z,101193.97
2023-02-19T05:47:33.325Z,101198.25
2023-02-19T05:50:01.262Z,101201.19
2023-02-19T05:52:29.145Z,101199.09
2023-02-19T05:54:56.984Z,101211.34
2023-02-19T05:57:24.819Z,101204.78
2023-02-19T05:59:52.681Z,101213.25
2023-02-19T06:02:21.925Z,101208.00
2023-02-19T06:04:49.764Z,101206.13
2023-02-19T06:07:17.646Z,101198.09
2023-02-19T06:09:45.520Z,101208.25
2023-02-19T06:12:13.407Z,101211.25
2023-02-19T06:14:41.346Z,101212.75
2023-02-19T06:17:09.216Z,101204.31
2023-02-19T06:19:38.430Z,101204.94
2023-02-19T06:22:06.353Z,101202.59
2023-02-19T06:24:34.644Z,101191.22
2023-02-19T06:27:02.648Z,101199.41
2023-02-19T06:29:32.507Z,101216.88
2023-02-19T06:32:00.546Z,101210.88
2023-02-19T06:34:28.447Z,101229.94
2023-02-19T06:36:58.001Z,101228.91
2023-02-19T06:39:25.925Z,101238.69
2023-02-19T06:41:56.253Z,101248.75
2023-02-19T06:44:24.148Z,101252.25
2023-02-19T06:46:52.418Z,101257.69
2023-02-19T06:49:20.270Z,101260.59
2023-02-19T06:51:48.240Z,101270.59
2023-02-19T06:54:17.450Z,101262.38
2023-02-19T06:56:47.076Z,101275.44
2023-02-19T06:59:17.766Z,101274.53
2023-02-19T07:01:46.582Z,101277.34
2023-02-19T07:04:14.669Z,101285.28
2023-02-19T07:06:42.913Z,101287.38
2023-02-19T07:09:11.744Z,101290.38
2023-02-19T07:11:41.591Z,101291.91
2023-02-19T07:14:14.929Z,101283.69
2023-02-19T07:16:42.956Z,101293.69
2023-02-19T07:19:12.317Z,101300.50
2023-02-19T07:21:40.173Z,101304.75
2023-02-19T07:24:08.230Z,101303.41
2023-02-19T07:26:36.748Z,101304.34
2023-02-19T07:29:06.203Z,101315.81
2023-02-19T07:31:34.419Z,101313.56
2023-02-19T07:34:02.348Z,101313.81
2023-02-19T07:36:30.289Z,101323.31
2023-02-19T07:38:59.262Z,101329.19
2023-02-19T07:41:28.239Z,101335.13
2023-02-19T07:43:58.581Z,101334.88
2023-02-19T07:46:28.281Z,101330.31
2023-02-19T07:48:56.129Z,101342.06
2023-02-19T07:51:24.128Z,101342.19
2023-02-19T07:53:52.389Z,101353.66
2023-02-19T07:56:21.774Z,101354.63
2023-02-19T07:58:49.816Z,101363.47
2023-02-19T08:01:19.880Z,101369.22
2023-02-19T08:03:50.385Z,101367.06
2023-02-19T08:06:18.408Z,101376.16
2023-02-19T08:08:46.305Z,101380.13
2023-02-19T08:11:31.635Z,101384.59
2023-02-19T08:13:59.530Z,101389.41
2023-02-19T08:16:41.085Z,101392.06
2023-02-19T08:19:11.622Z,101402.25
2023-02-19T08:21:39.527Z,101411.88
2023-02-19T08:24:07.574Z,101403.06
2023-02-19T08:26:35.584Z,101426.28
2023-02-19T08:29:03.843Z,101428.50
2023-02-19T08:31:31.917Z,101434.91
2023-02-19T08:34:00.100Z,101444.69
2023-02-19T08:36:30.645Z,101439.63
2023-02-19T08:38:58.668Z,101447.38
2023-02-19T08:41:26.722Z,101458.38
2023-02-19T08:43:54.638Z,101456.66
2023-02-19T08:46:22.756Z,101461.13
2023-02-19T08:48:51.065Z,101453.53
2023-02-19T08:51:19.091Z,101459.63
2023-02-19T08:53:48.549Z,101465.69
2023-02-19T08:56:18.581Z,101466.81
2023-02-19T08:58:47.029Z,101472.09
2023-02-19T09:01:18.258Z,101480.25
2023-02-19T09:03:48.526Z,101475.28
2023-02-19T09:06:21.071Z,101478.44
2023-02-19T09:08:50.540Z,101481.69
2023-02-19T09:11:18.676Z,101481.00
2023-02-19T09:13:47.000Z,101488.91
2023-02-19T09:16:14.910Z,101486.78
2023-02-19T09:18:43.282Z,101497.81
2023-02-19T09:21:11.549Z,101488.22
2023-02-19T09:23:40.032Z,101500.03
2023-02-19T09:26:11.475Z,101492.53
2023-02-19T09:28:41.984Z,101503.53
2023-02-19T09:31:12.976Z,101497.69
2023-02-19T09:33:44.605Z,101501.28
2023-02-19T09:36:13.817Z,101499.31
2023-02-19T09:38:42.082Z,101518.81
2023-02-19T09:41:19.275Z,101525.94
2023-02-19T09:43:48.062Z,101516.91
2023-02-19T09:46:26.459Z,101511.94
2023-02-19T09:48:58.234Z,101515.06
2023-02-19T09:51:30.022Z,101518.84
2023-02-19T09:53:58.972Z,101527.19
2023-02-19T09:56:28.708Z,101535.16
2023-02-19T09:58:59.360Z,101524.19
2023-02-19T10:01:32.216Z,101539.97
2023-02-19T10:04:00.426Z,101534.78
2023-02-19T10:06:29.936Z,101536.88
2023-02-19T10:09:17.662Z,101540.19
2023-02-19T10:11:52.760Z,101546.59
2023-02-19T10:14:25.629Z,101547.19
2023-02-19T10:16:54.644Z,101563.34
2023-02-19T10:19:23.026Z,101556.50
2023-02-19T10:21:51.325Z,101567.19
2023-02-19T10:24:23.180Z,101570.66
2023-02-19T10:26:52.815Z,101580.59
2023-02-19T10:29:22.075Z,101572.84
2023-02-19T10:31:52.194Z,101570.50
2023-02-19T10:34:23.570Z,101570.50
2023-02-19T10:36:53.793Z,101579.94
2023-02-19T10:39:43.357Z,101580.84
2023-02-19T10:42:23.789Z,101592.56
2023-02-19T10:44:58.475Z,101586.63
2023-02-19T10:47:30.239Z,101583.50
2023-02-19T10:50:02.101Z,101588.88
2023-02-19T10:52:35.262Z,101585.59
2023-02-19T10:55:17.587Z,101582.28
2023-02-19T10:57:47.108Z,101589.44
2023-02-19T11:00:24.251Z,101596.22
2023-02-19T11:03:16.328Z,101607.72
2023-02-19T11:05:56.183Z,101610.09
2023-02-19T11:08:25.270Z,101624.13
2023-02-19T11:10:53.368Z,101634.25
2023-02-19T11:13:30.418Z,101624.53
2023-02-19T11:15:59.041Z,101640.13
2023-02-19T11:18:29.966Z,101644.53
2023-02-19T11:21:00.572Z,101656.09
2023-02-19T11:23:31.741Z,101655.28
2023-02-19T11:26:02.714Z,101659.25
2023-02-19T11:28:37.436Z,101656.53
2023-02-19T11:31:16.516Z,101639.50
2023-02-19T11:33:46.957Z,101655.25
2023-02-19T11:36:28.716Z,101646.19
2023-02-19T11:38:59.834Z,101655.56
2023-02-19T11:41:53.624Z,101662.88
2023-02-19T11:44:36.811Z,101660.84
2023-02-19T11:47:28.746Z,101662.25
2023-02-19T11:50:04.256Z,101667.97
2023-02-19T11:52:40.887Z,101649.28
2023-02-19T11:55:18.983Z,101648.31
2023-02-19T11:57:49.789Z,101648.06
2023-02-19T12:00:25.224Z,101643.34
2023-02-19T12:03:16.271Z,101653.50
2023-02-19T12:06:05.256Z,101666.00
2023-02-19T12:08:57.810Z,101670.84
2023-02-19T12:12:00.940Z,101680.06
2023-02-19T12:14:57.813Z,101702.00
2023-02-19T12:17:49.148Z,101690.78
2023-02-19T12:20:27.578Z,101689.69
2023-02-19T12:23:08.706Z,101679.75
2023-02-19T12:25:53.433Z,101689.09
2023-02-19T12:28:52.179Z,101696.41
2023-02-19T12:31:53.121Z,101694.28
2023-02-19T12:34:44.816Z,101701.56
2023-02-19T12:37:27.365Z,101705.06
2023-02-19T12:40:11.132Z,101714.16
2023-02-19T12:42:51.269Z,101718.84
2023-02-19T12:45:22.392Z,101703.88
2023-02-19T12:48:00.569Z,101696.13
2023-02-19T12:50:31.518Z,101699.75
2023-02-19T12:53:03.815Z,101705.38
2023-02-19T12:55:38.937Z,101714.66
2023-02-19T12:58:12.412Z,101712.44
2023-02-19T13:00:44.191Z,101702.59
2023-02-19T13:03:21.049Z,101728.97
2023-02-19T13:05:54.473Z,101711.59
2023-02-19T13:08:28.435Z,101716.63
2023-02-19T13:11:00.680Z,101719.53
2023-02-19T13:13:32.970Z,101729.09
2023-02-19T13:16:05.205Z,101729.75
2023-02-19T13:18:39.236Z,101739.03
2023-02-19T13:21:10.179Z,101744.09
2023-02-19T13:24:02.652Z,101742.16
2023-02-19T13:27:01.156Z,101740.81
2023-02-19T13:29:46.523Z,101737.41
2023-02-19T13:32:34.159Z,101736.22
2023-02-19T13:35:25.859Z,101754.88
2023-02-19T13:37:56.990Z,101746.56
2023-02-19T13:40:32.341Z,101753.16
2023-02-19T13:43:02.895Z,101744.25
2023-02-19T13:45:35.537Z,101752.66
2023-02-19T13:48:15.327Z,101751.31
2023-02-19T13:50:43.438Z,101753.44
2023-02-19T13:53:48.129Z,101754.06
2023-02-19T13:56:39.091Z,101746.91
2023-02-19T13:59:37.124Z,101756.53
2023-02-19T14:02:27.021Z,101766.59
2023-02-19T14:04:58.118Z,101775.09
2023-02-19T14:07:39.128Z,101775.25
2023-02-19T14:10:14.539Z,101780.31
2023-02-19T14:12:43.828Z,101791.31
2023-02-19T14:15:44.057Z,101792.38
2023-02-19T14:18:43.727Z,101787.47
2023-02-19T14:21:25.575Z,101787.28
2023-02-19T14:23:54.883Z,101790.13
2023-02-19T14:26:23.878Z,101793.44
2023-02-19T14:28:54.843Z,101797.34
2023-02-19T14:31:29.298Z,101788.69
2023-02-19T14:34:00.477Z,101787.81
2023-02-19T14:36:36.843Z,101787.91
2023-02-19T14:39:07.747Z,101801.50
2023-02-19T14:41:39.959Z,101789.72
2023-02-19T14:44:17.268Z,101792.63
2023-02-19T14:47:01.282Z,101798.53
2023-02-19T14:49:49.233Z,101797.56
2023-02-19T14:52:49.446Z,101807.13
2023-02-19T14:55:38.429Z,101811.59
2023-02-19T14:58:18.213Z,101816.56
2023-02-19T15:00:54.309Z,101809.81
2023-02-19T15:03:34.939Z,101808.84
2023-02-19T15:06:06.538Z,101823.66
2023-02-19T15:08:38.197Z,101815.72
2023-02-19T15:11:11.412Z,101829.69
2023-02-19T15:13:45.491Z,101837.81
2023-02-19T15:16:19.708Z,101836.25
2023-02-19T15:18:50.045Z,101830.75
2023-02-19T15:21:25.087Z,101830.59
2023-02-19T15:23:56.317Z,101828.25
2023-02-19T15:26:29.073Z,101826.91
2023-02-19T15:29:02.167Z,101836.22
2023-02-19T15:31:31.846Z,101833.69
2023-02-19T15:33:59.780Z,101824.75
2023-02-19T15:36:31.097Z,101828.56
2023-02-19T15:39:02.224Z,101838.44
2023-02-19T15:41:34.656Z,101837.22
2023-02-19T15:44:13.760Z,101843.44
2023-02-19T15:46:46.867Z,101849.41
2023-02-19T15:49:20.568Z,101841.56
2023-02-19T15:51:56.183Z,101849.69
2023-02-19T15:54:28.680Z,101849.09
2023-02-19T15:57:01.345Z,101864.78
2023-02-19T15:59:36.490Z,101861.41
2023-02-19T16:02:06.227Z,101857.91
2023-02-19T16:04:36.528Z,101868.00
2023-02-19T16:07:05.092Z,101871.03
2023-02-19T16:09:35.865Z,101873.28
2023-02-19T16:12:18.688Z,101881.50
2023-02-19T16:14:46.832Z,101891.25
2023-02-19T16:17:20.767Z,101888.63
2023-02-19T16:19:57.681Z,101889.25
2023-02-19T16:22:29.011Z,101893.31
2023-02-19T16:24:59.835Z,101897.47
2023-02-19T16:27:33.270Z,101913.97
2023-02-19T16:30:05.477Z,101921.34
2023-02-19T16:32:34.854Z,101919.09
2023-02-19T16:35:02.768Z,101919.00
2023-02-19T16:37:36.378Z,101920.22
2023-02-19T16:40:56.578Z,101918.88
2023-02-19T16:43:31.588Z,101933.25
2023-02-19T16:46:00.613Z,101923.22
2023-02-19T16:48:29.905Z,101928.81
2023-02-19T16:50:57.932Z,101931.66
2023-02-19T16:53:26.459Z,101938.41
2023-02-19T16:55:54.383Z,101940.41
2023-02-19T16:58:22.361Z,101935.81
2023-02-19T17:00:50.245Z,101941.50
2023-02-19T17:03:22.226Z,101952.22
2023-02-19T17:05:51.838Z,101952.44
2023-02-19T17:08:31.133Z,101954.97
2023-02-19T17:10:59.450Z,101950.56
2023-02-19T17:13:27.416Z,101951.56
2023-02-19T17:15:55.345Z,101950.50
2023-02-19T17:18:24.008Z,101954.44
2023-02-19T17:20:57.835Z,101949.16
2023-02-19T17:23:25.715Z,101950.16
2023-02-19T17:25:53.876Z,101953.53
2023-02-19T17:28:21.800Z,101961.66
2023-02-19T17:30:49.728Z,101966.25
2023-02-19T17:33:17.589Z,101968.13
2023-02-19T17:35:45.793Z,101962.09
2023-02-19T17:38:15.888Z,101961.00
2023-02-19T17:40:45.219Z,101962.09
2023-02-19T17:43:13.099Z,101974.59
2023-02-19T17:45:41.136Z,101972.59
2023-02-19T17:48:12.897Z,101973.03
2023-02-19T17:50:41.084Z,101974.31
2023-02-19T17:53:09.582Z,101978.41
2023-02-19T17:55:38.823Z,101978.34
2023-02-19T17:58:06.658Z,101984.22
2023-02-19T18:00:37.980Z,101985.50
2023-02-19T18:03:07.463Z,101982.66
2023-02-19T18:05:35.409Z,101989.06
2023-02-19T18:08:03.312Z,101983.66
2023-02-19T18:10:31.502Z,101990.28
2023-02-19T18:13:00.832Z,101992.25
2023-02-19T18:15:28.762Z,101993.31
2023-02-19T18:17:58.167Z,101995.78
2023-02-19T18:20:27.737Z,102009.09
2023-02-19T18:22:56.448Z,102004.03
2023-02-19T18:25:24.697Z,102006.06
2023-02-19T18:27:53.326Z,102014.09
2023-02-19T18:30:23.884Z,102014.25
2023-02-19T18:32:52.046Z,102012.84
2023-02-19T18:35:21.385Z,102010.66
2023-02-19T18:37:52.009Z,102011.94
2023-02-19T18:40:21.022Z,102015.09
2023-02-19T18:42:49.486Z,102021.59
2023-02-19T18:45:17.624Z,102022.41
2023-02-19T18:47:49.150Z,102019.69
2023-02-19T18:50:17.817Z,102014.44
2023-02-19T18:52:45.821Z,102016.16
2023-02-19T18:55:14.311Z,102026.41
2023-02-19T18:57:42.188Z,102025.59
2023-02-19T19:00:10.843Z,102037.16
2023-02-19T19:02:48.720Z,102039.44
2023-02-19T19:05:22.625Z,102026.75
2023-02-19T19:07:50.488Z,102033.97
2023-02-19T19:10:18.990Z,102020.94
2023-02-19T19:12:46.907Z,102023.28
2023-02-19T19:15:17.959Z,102020.75
2023-02-19T19:17:46.268Z,102022.94
2023-02-19T19:20:14.955Z,102023.75
2023-02-19T19:22:44.228Z,102027.19
2023-02-19T19:25:12.454Z,102043.28
2023-02-19T19:27:40.368Z,102026.94
2023-02-19T19:30:09.766Z,102025.19
2023-02-19T19:32:37.870Z,102026.19
2023-02-19T19:35:06.169Z,102031.03
2023-02-19T19:37:34.083Z,102019.81
2023-02-19T19:40:03.954Z,102021.72
2023-02-19T19:42:31.904Z,102024.00
2023-02-19T19:44:59.911Z,102022.53
2023-02-19T19:47:27.923Z,102028.94
2023-02-19T19:49:55.880Z,102030.44
2023-02-19T19:52:23.777Z,102033.66
2023-02-19T19:54:54.085Z,102015.94
2023-02-19T19:57:23.392Z,102026.59
2023-02-19T19:59:52.015Z,102022.94
2023-02-19T20:02:20.678Z,102019.19
2023-02-19T20:04:48.579Z,102019.88
2023-02-19T20:07:16.984Z,102012.38
2023-02-19T20:09:48.052Z,102018.78
2023-02-19T20:12:16.103Z,102015.09
2023-02-19T20:14:46.670Z,102017.34
2023-02-19T20:17:15.318Z,102024.50
2023-02-19T20:19:43.270Z,102033.41
2023-02-19T20:22:12.234Z,102033.41
2023-02-19T20:24:40.072Z,102035.25
2023-02-19T20:27:07.931Z,102039.06
2023-02-19T20:29:36.075Z,102043.13
2023-02-19T20:32:05.750Z,102041.84
2023-02-19T20:34:33.708Z,102042.28
2023-02-19T20:37:01.533Z,102045.78
2023-02-19T20:39:29.900Z,102052.84
2023-02-19T20:41:59.061Z,102055.16
2023-02-19T20:44:27.769Z,102051.91
2023-02-19T20:46:56.615Z,102051.47
2023-02-19T20:49:27.915Z,102053.13
2023-02-19T20:51:58.099Z,102047.81
2023-02-19T20:54:28.310Z,102054.13
2023-02-19T20:56:57.874Z,102061.34
2023-02-19T20:59:30.483Z,102051.69
2023-02-19T21:01:59.122Z,102046.66
2023-02-19T21:04:28.686Z,102058.69
2023-02-19T21:06:56.625Z,102055.47
2023-02-19T21:09:25.113Z,102059.22
2023-02-19T21:11:53.223Z,102056.25
2023-02-19T21:14:21.098Z,102054.25
2023-02-19T21:16:49.056Z,102050.56
2023-02-19T21:19:16.970Z,102050.22
2023-02-19T21:21:46.267Z,102045.25
2023-02-19T21:24:15.772Z,102030.31
2023-02-19T21:26:44.554Z,102027.06
2023-02-19T21:29:16.590Z,102028.16
2023-02-19T21:31:46.578Z,102020.13
2023-02-19T21:34:16.778Z,102018.22
2023-02-19T21:36:46.030Z,102019.50
2023-02-19T21:39:15.714Z,102012.59
2023-02-19T21:41:43.574Z,102017.59
2023-02-19T21:44:11.656Z,102007.94
2023-02-19T21:46:39.556Z,102010.91
2023-02-19T21:49:07.474Z,102012.28
2023-02-19T21:51:37.094Z,102013.63
2023-02-19T21:54:08.048Z,102004.03
2023-02-19T21:56:37.205Z,102001.59
2023-02-19T21:59:05.517Z,102007.22
2023-02-19T22:01:34.922Z,102001.50
2023-02-19T22:04:02.789Z,101999.44
2023-02-19T22:06:32.245Z,101985.94
2023-02-19T22:09:00.688Z,101979.91
2023-02-19T22:11:29.930Z,101979.53
2023-02-19T22:13:57.837Z,101971.78
2023-02-19T22:16:26.424Z,101963.53
2023-02-19T22:18:56.774Z,101970.53
2023-02-19T22:21:27.257Z,101958.34
2023-02-19T22:23:56.012Z,101957.47
2023-02-19T22:26:25.662Z,101959.84
2023-02-19T22:28:56.132Z,101954.72
2023-02-19T22:31:25.904Z,101954.72
2023-02-19T22:33:54.093Z,101961.66
2023-02-19T22:36:24.931Z,101955.75
2023-02-19T22:38:53.347Z,101962.50
2023-02-19T22:41:22.274Z,101966.69
2023-02-19T22:43:50.524Z,101966.97
2023-02-19T22:46:21.230Z,101981.53
2023-02-19T22:48:49.084Z,101988.69
2023-02-19T22:51:18.418Z,101976.34
2023-02-19T22:53:46.789Z,101985.34
2023-02-19T22:56:16.611Z,101998.00
2023-02-19T22:58:45.028Z,101996.25
2023-02-19T23:01:14.328Z,101998.47
2023-02-19T23:03:52.424Z,101987.44
2023-02-19T23:06:24.225Z,101992.19
2023-02-19T23:08:52.244Z,101984.69
2023-02-19T23:11:25.556Z,101994.88
2023-02-19T23:13:53.533Z,101988.56
2023-02-19T23:16:21.533Z,101999.09
2023-02-19T23:18:50.833Z,101984.06
2023-02-19T23:21:20.296Z,101985.59
2023-02-19T23:23:48.805Z,101985.41
2023-02-19T23:26:17.416Z,101993.09
2023-02-19T23:28:45.749Z,101979.59
2023-02-19T23:31:14.457Z,101984.44
2023-02-19T23:33:42.767Z,101971.88
2023-02-19T23:36:13.959Z,101970.72
2023-02-19T23:38:44.480Z,101970.13
2023-02-19T23:41:15.017Z,101965.28
2023-02-19T23:43:43.091Z,101964.06
2023-02-19T23:46:14.570Z,101962.22
2023-02-19T23:48:42.589Z,101945.78
2023-02-19T23:51:12.092Z,101958.75
2023-02-19T23:53:39.953Z,101954.38
2023-02-19T23:56:08.628Z,101958.59
2023-02-19T23:58:36.562Z,101951.28
